F/V Quentin Gregoire — FMIU — position and weather

sailwx.info

Track history (hours):
 
Tides and Currents Weather Stations Pressure Air Temp Water Temp Dewpoint Dewpoint Depression Visibility Wind Speed Wind Dir Waves Ship Positions

F/V Quentin Gregoire

Last reported at 2017-Sep-19 15:31 UTC. Time now 2017-Sep-19 15:32 UTC.
Position N 47°11' W 003°00'.

Length 18 m.

Type: Fishing. MMSI: 228240600.

Date/timePositionNaut miles runAvg speedWind from/ knotsBaromVisibWave heightAir tempDewpointWater temp
2017-Sep-19 15:31N 47°11' W 003°00'2 3.3
2017-Sep-19 15:00N 47°10' W 003°02'4 2.0
2017-Sep-19 12:58N 47°07' W 002°58'3 2.8
2017-Sep-19 12:04N 47°09' W 002°59'2 2.6
2017-Sep-19 11:28N 47°10' W 002°57'3 2.7
2017-Sep-19 10:24N 47°12' W 002°53'1 3.1
2017-Sep-19 10:00N 47°13' W 002°52'1 2.4
2017-Sep-19 09:29N 47°14' W 002°53'1 3.1
2017-Sep-19 09:01N 47°14' W 002°55'2 3.0
2017-Sep-19 08:30N 47°13' W 002°58'2 2.8
2017-Sep-19 07:58N 47°13' W 002°59'10 3.2
2017-Sep-19 05:02N 47°15' W 002°46'2 8.8
2017-Sep-19 04:50N 47°16' W 002°44'3 8.7
2017-Sep-19 04:30N 47°18' W 002°41'4 8.1
2017-Sep-19 04:01N 47°19' W 002°35'3 6.1
2017-Sep-19 03:29N 47°18' W 002°31'0 0.0
2017-Sep-19 03:00N 47°18' W 002°31'0 0.0
2017-Sep-19 02:30N 47°18' W 002°31'0 0.1
2017-Sep-19 02:01N 47°18' W 002°31'0 0.0
2017-Sep-19 01:23N 47°18' W 002°31'0 0.0
2017-Sep-19 00:55N 47°18' W 002°31'0 0.0
2017-Sep-19 00:25N 47°18' W 002°31'3 6.2
2017-Sep-18 23:59N 47°19' W 002°34'4 7.9
2017-Sep-18 23:30N 47°19' W 002°40'3 6.8
2017-Sep-18 22:59N 47°16' W 002°44'2 4.4
2017-Sep-18 22:30N 47°15' W 002°46'2 3.4
2017-Sep-18 21:56N 47°14' W 002°49'1 3.2
2017-Sep-18 21:30N 47°14' W 002°51'1 2.7
2017-Sep-18 21:01N 47°14' W 002°53'1 2.8
2017-Sep-18 20:29N 47°14' W 002°55'1 2.8
2017-Sep-18 19:59N 47°14' W 002°57'1 2.7
2017-Sep-18 19:31N 47°13' W 002°59'1 2.4
2017-Sep-18 19:00N 47°12' W 002°60'1 2.3
2017-Sep-18 18:30N 47°11' W 002°59'1 2.6
2017-Sep-18 18:01N 47°10' W 003°01'1 2.6
2017-Sep-18 17:31N 47°09' W 003°03'1 2.6
2017-Sep-18 16:57N 47°08' W 003°02'1 3.3
2017-Sep-18 16:30N 47°09' W 003°00'1 2.5
2017-Sep-18 16:01N 47°08' W 002°59'2 3.0
2017-Sep-18 15:28N 47°07' W 002°57'  
2017-Sep-16 02:17N 47°15' W 002°35'3 9.7
2017-Sep-16 02:00N 47°18' W 002°35'3 5.3
2017-Sep-16 01:30N 47°18' W 002°31'0 0.0
2017-Sep-16 00:59N 47°18' W 002°31'0 0.0
2017-Sep-16 00:30N 47°18' W 002°31'0 0.0
2017-Sep-16 00:00N 47°18' W 002°31'8 0.2
2017-Sep-13 23:30N 47°12' W 002°38'5 8.3
2017-Sep-13 22:53N 47°17' W 002°36'3 5.8
2017-Sep-13 22:18N 47°19' W 002°32'1 0.3
2017-Sep-13 18:51N 47°18' W 002°31'0 0.0
2017-Sep-13 18:30N 47°18' W 002°31'0 0.0
2017-Sep-13 18:00N 47°18' W 002°31'0 0.0
2017-Sep-13 17:30N 47°18' W 002°31'0 0.0
2017-Sep-13 17:00N 47°18' W 002°31'0 0.0
2017-Sep-13 16:30N 47°18' W 002°31'0 0.0
2017-Sep-13 15:58N 47°18' W 002°31'0 0.0
2017-Sep-13 15:30N 47°18' W 002°31'0 0.0
2017-Sep-13 15:00N 47°18' W 002°31'0 0.0
2017-Sep-13 14:30N 47°18' W 002°31'0 0.0
2017-Sep-13 14:00N 47°18' W 002°31'0 0.0
2017-Sep-13 13:30N 47°18' W 002°31'0 0.0
2017-Sep-13 06:25N 47°18' W 002°31'0 0.0
2017-Sep-13 05:42N 47°18' W 002°31'0 0.0
2017-Sep-13 05:25N 47°18' W 002°31'0 0.0
2017-Sep-13 04:59N 47°18' W 002°31'0 0.0
2017-Sep-13 04:30N 47°18' W 002°31'0 0.0
2017-Sep-13 03:58N 47°18' W 002°31'0 0.0
2017-Sep-13 03:29N 47°18' W 002°31'0 0.0
2017-Sep-13 02:59N 47°18' W 002°31'0 0.0
2017-Sep-13 02:26N 47°18' W 002°31'0 0.0
2017-Sep-13 01:53N 47°18' W 002°31'0 0.0
2017-Sep-12 19:17N 47°18' W 002°31'0 0.0
2017-Sep-12 19:00N 47°18' W 002°31'0 0.0
2017-Sep-12 18:25N 47°18' W 002°31'1 1.5
2017-Sep-12 17:59N 47°19' W 002°31'2 4.7
2017-Sep-12 17:30N 47°21' W 002°31'0 0.1
2017-Sep-12 15:27N 47°21' W 002°31'0 0.1
2017-Sep-12 14:45N 47°21' W 002°31'0 0.0
2017-Sep-12 14:30N 47°21' W 002°31'0 0.0
2017-Sep-12 14:00N 47°21' W 002°31'0 0.0
2017-Sep-12 13:30N 47°21' W 002°31'0 0.0
2017-Sep-12 13:00N 47°21' W 002°31'0 0.0
2017-Sep-12 12:30N 47°21' W 002°31'0 0.0
2017-Sep-12 12:00N 47°21' W 002°31'0 0.0
2017-Sep-12 11:30N 47°21' W 002°31'0 0.0
2017-Sep-12 11:00N 47°21' W 002°31'0 0.0
2017-Sep-12 10:30N 47°21' W 002°31'0 0.0
2017-Sep-12 10:00N 47°21' W 002°31'0 0.0
2017-Sep-12 09:31N 47°21' W 002°31'0 0.0
2017-Sep-12 09:01N 47°21' W 002°31'0 0.0
2017-Sep-12 08:30N 47°21' W 002°31'0 0.0
2017-Sep-12 08:00N 47°21' W 002°31'0 0.0
2017-Sep-12 07:30N 47°21' W 002°31'0 0.0
2017-Sep-12 07:00N 47°21' W 002°31'0 0.0
2017-Sep-12 06:30N 47°21' W 002°31'0 0.0
2017-Sep-12 06:00N 47°21' W 002°31'0 0.0
2017-Sep-12 05:30N 47°21' W 002°31'0 0.0
2017-Sep-12 05:01N 47°21' W 002°31'0 0.0
2017-Sep-12 04:30N 47°21' W 002°31'0 0.0
2017-Sep-12 04:00N 47°21' W 002°31'0 0.0
2017-Sep-12 03:31N 47°21' W 002°31'0 0.0
2017-Sep-12 03:00N 47°21' W 002°31'0 0.0
2017-Sep-12 02:30N 47°21' W 002°31'0 0.0
2017-Sep-12 02:00N 47°21' W 002°31'0 0.0
2017-Sep-12 01:30N 47°21' W 002°31'0 0.0
2017-Sep-12 01:00N 47°21' W 002°31'0 0.0
2017-Sep-12 00:30N 47°21' W 002°31'0 0.0
2017-Sep-12 00:00N 47°21' W 002°31'0 0.0
2017-Sep-11 23:31N 47°21' W 002°31'0 0.0
2017-Sep-11 23:00N 47°21' W 002°31'0 0.0
2017-Sep-11 22:30N 47°21' W 002°31'0 0.0
2017-Sep-11 22:01N 47°21' W 002°31'0 0.0
2017-Sep-11 21:30N 47°21' W 002°31'0 0.0
2017-Sep-11 21:00N 47°21' W 002°31'0 0.0
2017-Sep-11 20:30N 47°21' W 002°31'0 0.0
2017-Sep-11 20:00N 47°21' W 002°31'0 0.0
2017-Sep-11 19:30N 47°21' W 002°31'0 0.0
2017-Sep-11 19:00N 47°21' W 002°31'0 0.0
2017-Sep-11 18:30N 47°21' W 002°31'0 0.0
2017-Sep-11 18:00N 47°21' W 002°31'0 0.0
2017-Sep-11 17:31N 47°21' W 002°31'0 0.0
2017-Sep-11 16:59N 47°21' W 002°31'0 0.0
2017-Sep-11 16:30N 47°21' W 002°31'0 0.0
2017-Sep-11 16:00N 47°21' W 002°31'0 0.0
2017-Sep-11 15:30N 47°21' W 002°31'0 0.0
2017-Sep-11 15:00N 47°21' W 002°31'0 0.0
2017-Sep-11 14:30N 47°21' W 002°31'0 0.0
2017-Sep-11 14:01N 47°21' W 002°31'0 0.0
2017-Sep-11 13:30N 47°21' W 002°31'0 0.0
2017-Sep-11 13:00N 47°21' W 002°31'0 0.0
2017-Sep-11 12:30N 47°21' W 002°31'0 0.0
2017-Sep-11 12:00N 47°21' W 002°31'0 0.0
2017-Sep-11 11:30N 47°21' W 002°31'0 0.0
2017-Sep-11 11:00N 47°21' W 002°31'0 0.0
2017-Sep-11 10:30N 47°21' W 002°31'0 0.0
2017-Sep-11 10:00N 47°21' W 002°31'0 0.0
2017-Sep-11 09:30N 47°21' W 002°31'0 0.0
2017-Sep-11 09:00N 47°21' W 002°31'0 0.0
2017-Sep-11 08:30N 47°21' W 002°31'  
Track history (hours):
 
Tides and Currents Weather Stations Pressure Air Temp Water Temp Dewpoint Dewpoint Depression Visibility Wind Speed Wind Dir Waves Ship Positions

F/V Quentin Gregoire

Last reported at 2017-Sep-19 15:31 UTC. Time now 2017-Sep-19 15:32 UTC.
Position N 47°11' W 003°00'.

Length 18 m.

Type: Fishing. MMSI: 228240600.

Date/timePositionNaut miles runAvg speedWind from/ knotsBaromVisibWave heightAir tempDewpointWater temp
2017-Sep-19 15:31N 47°11' W 003°00'2 3.3
2017-Sep-19 15:00N 47°10' W 003°02'4 2.0
2017-Sep-19 12:58N 47°07' W 002°58'3 2.8
2017-Sep-19 12:04N 47°09' W 002°59'2 2.6
2017-Sep-19 11:28N 47°10' W 002°57'3 2.7
2017-Sep-19 10:24N 47°12' W 002°53'1 3.1
2017-Sep-19 10:00N 47°13' W 002°52'1 2.4
2017-Sep-19 09:29N 47°14' W 002°53'1 3.1
2017-Sep-19 09:01N 47°14' W 002°55'2 3.0
2017-Sep-19 08:30N 47°13' W 002°58'2 2.8
2017-Sep-19 07:58N 47°13' W 002°59'10 3.2
2017-Sep-19 05:02N 47°15' W 002°46'2 8.8
2017-Sep-19 04:50N 47°16' W 002°44'3 8.7
2017-Sep-19 04:30N 47°18' W 002°41'4 8.1
2017-Sep-19 04:01N 47°19' W 002°35'3 6.1
2017-Sep-19 03:29N 47°18' W 002°31'0 0.0
2017-Sep-19 03:00N 47°18' W 002°31'0 0.0
2017-Sep-19 02:30N 47°18' W 002°31'0 0.1
2017-Sep-19 02:01N 47°18' W 002°31'0 0.0
2017-Sep-19 01:23N 47°18' W 002°31'0 0.0
2017-Sep-19 00:55N 47°18' W 002°31'0 0.0
2017-Sep-19 00:25N 47°18' W 002°31'3 6.2
2017-Sep-18 23:59N 47°19' W 002°34'4 7.9
2017-Sep-18 23:30N 47°19' W 002°40'3 6.8
2017-Sep-18 22:59N 47°16' W 002°44'2 4.4
2017-Sep-18 22:30N 47°15' W 002°46'2 3.4
2017-Sep-18 21:56N 47°14' W 002°49'1 3.2
2017-Sep-18 21:30N 47°14' W 002°51'1 2.7
2017-Sep-18 21:01N 47°14' W 002°53'1 2.8
2017-Sep-18 20:29N 47°14' W 002°55'1 2.8
2017-Sep-18 19:59N 47°14' W 002°57'1 2.7
2017-Sep-18 19:31N 47°13' W 002°59'1 2.4
2017-Sep-18 19:00N 47°12' W 002°60'1 2.3
2017-Sep-18 18:30N 47°11' W 002°59'1 2.6
2017-Sep-18 18:01N 47°10' W 003°01'1 2.6
2017-Sep-18 17:31N 47°09' W 003°03'1 2.6
2017-Sep-18 16:57N 47°08' W 003°02'1 3.3
2017-Sep-18 16:30N 47°09' W 003°00'1 2.5
2017-Sep-18 16:01N 47°08' W 002°59'2 3.0
2017-Sep-18 15:28N 47°07' W 002°57'  
2017-Sep-16 02:17N 47°15' W 002°35'3 9.7
2017-Sep-16 02:00N 47°18' W 002°35'3 5.3
2017-Sep-16 01:30N 47°18' W 002°31'0 0.0
2017-Sep-16 00:59N 47°18' W 002°31'0 0.0
2017-Sep-16 00:30N 47°18' W 002°31'0 0.0
2017-Sep-16 00:00N 47°18' W 002°31'8 0.2
2017-Sep-13 23:30N 47°12' W 002°38'5 8.3
2017-Sep-13 22:53N 47°17' W 002°36'3 5.8
2017-Sep-13 22:18N 47°19' W 002°32'1 0.3
2017-Sep-13 18:51N 47°18' W 002°31'0 0.0
2017-Sep-13 18:30N 47°18' W 002°31'0 0.0
2017-Sep-13 18:00N 47°18' W 002°31'0 0.0
2017-Sep-13 17:30N 47°18' W 002°31'0 0.0
2017-Sep-13 17:00N 47°18' W 002°31'0 0.0
2017-Sep-13 16:30N 47°18' W 002°31'0 0.0
2017-Sep-13 15:58N 47°18' W 002°31'0 0.0
2017-Sep-13 15:30N 47°18' W 002°31'0 0.0
2017-Sep-13 15:00N 47°18' W 002°31'0 0.0
2017-Sep-13 14:30N 47°18' W 002°31'0 0.0
2017-Sep-13 14:00N 47°18' W 002°31'0 0.0
2017-Sep-13 13:30N 47°18' W 002°31'0 0.0
2017-Sep-13 06:25N 47°18' W 002°31'0 0.0
2017-Sep-13 05:42N 47°18' W 002°31'0 0.0
2017-Sep-13 05:25N 47°18' W 002°31'0 0.0
2017-Sep-13 04:59N 47°18' W 002°31'0 0.0
2017-Sep-13 04:30N 47°18' W 002°31'0 0.0
2017-Sep-13 03:58N 47°18' W 002°31'0 0.0
2017-Sep-13 03:29N 47°18' W 002°31'0 0.0
2017-Sep-13 02:59N 47°18' W 002°31'0 0.0
2017-Sep-13 02:26N 47°18' W 002°31'0 0.0
2017-Sep-13 01:53N 47°18' W 002°31'0 0.0
2017-Sep-12 19:17N 47°18' W 002°31'0 0.0
2017-Sep-12 19:00N 47°18' W 002°31'0 0.0
2017-Sep-12 18:25N 47°18' W 002°31'1 1.5
2017-Sep-12 17:59N 47°19' W 002°31'2 4.7
2017-Sep-12 17:30N 47°21' W 002°31'0 0.1
2017-Sep-12 15:27N 47°21' W 002°31'0 0.1
2017-Sep-12 14:45N 47°21' W 002°31'0 0.0
2017-Sep-12 14:30N 47°21' W 002°31'0 0.0
2017-Sep-12 14:00N 47°21' W 002°31'0 0.0
2017-Sep-12 13:30N 47°21' W 002°31'0 0.0
2017-Sep-12 13:00N 47°21' W 002°31'0 0.0
2017-Sep-12 12:30N 47°21' W 002°31'0 0.0
2017-Sep-12 12:00N 47°21' W 002°31'0 0.0
2017-Sep-12 11:30N 47°21' W 002°31'0 0.0
2017-Sep-12 11:00N 47°21' W 002°31'0 0.0
2017-Sep-12 10:30N 47°21' W 002°31'0 0.0
2017-Sep-12 10:00N 47°21' W 002°31'0 0.0
2017-Sep-12 09:31N 47°21' W 002°31'0 0.0
2017-Sep-12 09:01N 47°21' W 002°31'0 0.0
2017-Sep-12 08:30N 47°21' W 002°31'0 0.0
2017-Sep-12 08:00N 47°21' W 002°31'0 0.0
2017-Sep-12 07:30N 47°21' W 002°31'0 0.0
2017-Sep-12 07:00N 47°21' W 002°31'0 0.0
2017-Sep-12 06:30N 47°21' W 002°31'0 0.0
2017-Sep-12 06:00N 47°21' W 002°31'0 0.0
2017-Sep-12 05:30N 47°21' W 002°31'0 0.0
2017-Sep-12 05:01N 47°21' W 002°31'0 0.0
2017-Sep-12 04:30N 47°21' W 002°31'0 0.0
2017-Sep-12 04:00N 47°21' W 002°31'0 0.0
2017-Sep-12 03:31N 47°21' W 002°31'0 0.0
2017-Sep-12 03:00N 47°21' W 002°31'0 0.0
2017-Sep-12 02:30N 47°21' W 002°31'0 0.0
2017-Sep-12 02:00N 47°21' W 002°31'0 0.0
2017-Sep-12 01:30N 47°21' W 002°31'0 0.0
2017-Sep-12 01:00N 47°21' W 002°31'0 0.0
2017-Sep-12 00:30N 47°21' W 002°31'0 0.0
2017-Sep-12 00:00N 47°21' W 002°31'0 0.0
2017-Sep-11 23:31N 47°21' W 002°31'0 0.0
2017-Sep-11 23:00N 47°21' W 002°31'0 0.0
2017-Sep-11 22:30N 47°21' W 002°31'0 0.0
2017-Sep-11 22:01N 47°21' W 002°31'0 0.0
2017-Sep-11 21:30N 47°21' W 002°31'0 0.0
2017-Sep-11 21:00N 47°21' W 002°31'0 0.0
2017-Sep-11 20:30N 47°21' W 002°31'0 0.0
2017-Sep-11 20:00N 47°21' W 002°31'0 0.0
2017-Sep-11 19:30N 47°21' W 002°31'0 0.0
2017-Sep-11 19:00N 47°21' W 002°31'0 0.0
2017-Sep-11 18:30N 47°21' W 002°31'0 0.0
2017-Sep-11 18:00N 47°21' W 002°31'0 0.0
2017-Sep-11 17:31N 47°21' W 002°31'0 0.0
2017-Sep-11 16:59N 47°21' W 002°31'0 0.0
2017-Sep-11 16:30N 47°21' W 002°31'0 0.0
2017-Sep-11 16:00N 47°21' W 002°31'0 0.0
2017-Sep-11 15:30N 47°21' W 002°31'0 0.0
2017-Sep-11 15:00N 47°21' W 002°31'0 0.0
2017-Sep-11 14:30N 47°21' W 002°31'0 0.0
2017-Sep-11 14:01N 47°21' W 002°31'0 0.0
2017-Sep-11 13:30N 47°21' W 002°31'0 0.0
2017-Sep-11 13:00N 47°21' W 002°31'0 0.0
2017-Sep-11 12:30N 47°21' W 002°31'0 0.0
2017-Sep-11 12:00N 47°21' W 002°31'0 0.0
2017-Sep-11 11:30N 47°21' W 002°31'0 0.0
2017-Sep-11 11:00N 47°21' W 002°31'0 0.0
2017-Sep-11 10:30N 47°21' W 002°31'0 0.0
2017-Sep-11 10:00N 47°21' W 002°31'0 0.0
2017-Sep-11 09:30N 47°21' W 002°31'0 0.0
2017-Sep-11 09:00N 47°21' W 002°31'0 0.0
2017-Sep-11 08:30N 47°21' W 002°31'  

Dump ship's entire track history